Time;durP1;ratioP1;P1;durP2;ratioP2;P2;SDS_P1;SDS_P2;PMS_P1;PMS_P2;Temp;Humidity;BMP_temperature;BMP_pressure;BME280_temperature;BME280_humidity;BME280_pressure;Samples;Min_cycle;Max_cycle;Signal;HPM_P1;HPM_P2
2022/07/05 00:01:41;;;;;;;2.90;1.60;;;15.00;99.90;;;-144.05;58.87;125687.94;6111666;23;20005;-91
2022/07/05 00:04:07;;;;;;;2.55;1.52;;;15.10;99.90;;;-144.05;59.13;125687.94;6133532;23;20010;-88
2022/07/05 00:06:33;;;;;;;5.65;1.98;;;15.00;99.90;;;-144.05;59.23;125687.94;6108780;23;20087;-90
2022/07/05 00:09:00;;;;;;;3.70;1.55;;;15.00;99.90;;;-144.05;59.36;125687.94;6132970;23;20010;-87
2022/07/05 00:11:28;;;;;;;2.63;1.60;;;15.00;99.90;;;-144.05;59.69;125687.94;6135004;23;20006;-89
2022/07/05 00:13:55;;;;;;;2.60;1.63;;;14.90;99.90;;;-144.05;60.01;125687.94;6107806;23;20017;-89
2022/07/05 00:16:23;;;;;;;3.30;1.65;;;14.90;99.90;;;-144.05;60.41;125687.94;6108368;23;20007;-88
2022/07/05 00:18:49;;;;;;;5.82;2.13;;;14.90;99.90;;;-144.05;60.71;125687.94;6125767;23;20014;-88
2022/07/05 00:21:15;;;;;;;4.55;1.70;;;14.90;99.90;;;-144.05;61.07;125687.94;6135980;23;20012;-87
2022/07/05 00:23:41;;;;;;;4.32;1.70;;;14.80;99.90;;;-144.05;61.28;125687.94;6157393;23;20401;-87
2022/07/05 00:26:07;;;;;;;5.97;2.10;;;14.80;99.90;;;-144.05;61.35;125687.94;6132068;23;20076;-87
2022/07/05 00:28:33;;;;;;;2.70;1.80;;;14.70;99.90;;;-144.05;61.48;125687.94;6133996;23;20334;-88
2022/07/05 00:31:02;;;;;;;3.60;1.80;;;14.70;99.90;;;-144.05;61.55;125687.94;6133537;23;20014;-85
2022/07/05 00:33:28;;;;;;;1.85;1.60;;;14.70;99.90;;;-144.05;61.58;125687.94;6134759;23;20021;-89
2022/07/05 00:35:54;;;;;;;3.90;2.00;;;14.70;99.90;;;-144.05;61.53;125687.94;6158151;23;20005;-88
2022/07/05 00:38:24;;;;;;;8.05;2.15;;;14.60;99.90;;;-144.05;61.59;125687.94;6132524;23;20133;-86
2022/07/05 00:40:50;;;;;;;4.28;2.35;;;14.60;99.90;;;-144.05;61.95;125687.94;6109237;23;20017;-88
2022/07/05 00:43:17;;;;;;;2.05;1.50;;;14.50;99.90;;;-144.05;62.39;125687.94;6133375;23;20010;-87
2022/07/05 00:45:43;;;;;;;6.75;1.83;;;14.40;99.90;;;-144.05;62.79;125687.94;6121055;23;20010;-90
2022/07/05 00:48:11;;;;;;;2.53;1.67;;;14.30;99.90;;;-144.05;63.08;125687.94;6140471;23;20013;-89
2022/07/05 00:50:40;;;;;;;4.47;2.00;;;14.20;99.90;;;-144.05;63.46;125687.94;6140228;23;20093;-88
2022/07/05 00:53:16;;;;;;;4.88;2.30;;;14.20;99.90;;;-144.05;63.57;125687.94;6137776;23;20045;-85
2022/07/05 00:55:45;;;;;;;5.20;1.90;;;14.10;99.90;;;-144.05;63.92;125687.94;6165830;23;20002;-86
2022/07/05 00:58:18;;;;;;;3.40;1.65;;;14.10;99.90;;;-144.05;64.09;125687.94;6138554;23;20006;-87
2022/07/05 01:00:47;;;;;;;2.85;2.05;;;14.00;99.90;;;-144.05;64.40;125687.94;6138587;23;20029;-87
2022/07/05 01:03:14;;;;;;;3.05;2.15;;;13.90;99.90;;;-144.05;64.82;125687.94;6134386;23;20037;-88
2022/07/05 01:05:40;;;;;;;4.22;2.30;;;13.90;99.90;;;-144.05;65.30;125687.94;6133782;23;20012;-89
2022/07/05 01:08:06;;;;;;;5.60;2.03;;;13.80;99.90;;;-144.05;65.50;125687.94;6132553;23;20013;-86
2022/07/05 01:10:33;;;;;;;5.13;1.90;;;13.70;99.90;;;-144.05;65.78;125687.94;6156105;23;20005;-87
2022/07/05 01:12:59;;;;;;;5.90;2.13;;;13.70;99.90;;;-144.05;65.78;125687.94;6132439;23;20010;-89
2022/07/05 01:15:30;;;;;;;5.22;2.10;;;13.70;99.90;;;-144.05;66.21;125687.94;6132367;23;20010;-89
2022/07/05 01:17:57;;;;;;;4.95;2.55;;;13.70;99.90;;;-144.05;66.41;125687.94;6135080;23;20014;-87
2022/07/05 01:20:26;;;;;;;2.78;1.92;;;13.70;99.90;;;-144.05;66.53;125687.94;6134365;23;20054;-88
2022/07/05 01:23:04;;;;;;;3.42;2.10;;;13.60;99.90;;;-144.05;66.94;125687.94;6156106;23;20077;-89
2022/07/05 01:25:31;;;;;;;3.33;1.98;;;13.50;99.90;;;-144.05;67.38;125687.94;6130330;23;20006;-88
2022/07/05 01:28:00;;;;;;;2.53;1.90;;;13.50;99.90;;;-144.05;67.39;125687.94;6133162;23;20005;-89
2022/07/05 01:30:27;;;;;;;3.22;2.10;;;13.50;99.90;;;-144.05;67.47;125687.94;6131562;23;20014;-89
2022/07/05 01:32:54;;;;;;;3.75;2.22;;;13.40;99.90;;;-144.05;67.74;125687.94;6156522;23;20282;-88
2022/07/05 01:35:20;;;;;;;3.08;1.83;;;13.30;99.90;;;-144.05;68.30;125687.94;6133401;23;20006;-89
2022/07/05 01:37:49;;;;;;;3.63;2.30;;;13.30;99.90;;;-144.05;68.54;125687.94;6131401;23;20006;-87
2022/07/05 01:40:20;;;;;;;4.03;2.08;;;13.30;99.90;;;-144.05;68.77;125687.94;6132715;23;20017;-87
2022/07/05 01:42:47;;;;;;;4.80;2.20;;;13.30;99.90;;;-144.05;68.96;125687.94;6132277;23;20089;-88
2022/07/05 01:45:38;;;;;;;2.97;1.92;;;13.40;99.90;;;-144.05;68.77;125687.94;6157655;23;20006;-89
2022/07/05 01:48:11;;;;;;;3.80;1.92;;;13.40;99.90;;;-144.05;68.93;125687.94;6134407;23;20006;-87
2022/07/05 01:50:54;;;;;;;5.75;2.42;;;13.40;99.90;;;-144.05;68.82;125687.94;6132183;23;20034;-87
2022/07/05 01:53:33;;;;;;;6.18;2.25;;;13.50;99.90;;;-144.05;68.74;125687.94;6132519;23;20006;-89
2022/07/05 01:56:03;;;;;;;3.13;2.30;;;13.60;99.90;;;-144.05;68.77;125687.94;6134992;23;20010;-89
2022/07/05 01:58:31;;;;;;;3.38;2.13;;;13.80;99.90;;;-144.05;68.57;125687.94;6158744;23;20010;-87
2022/07/05 02:00:59;;;;;;;4.07;1.90;;;13.80;99.90;;;-144.05;68.67;125687.94;6136177;23;20033;-88
2022/07/05 02:03:30;;;;;;;3.70;1.90;;;13.90;99.90;;;-144.05;68.46;125687.94;6131931;23;20017;-90
2022/07/05 02:05:56;;;;;;;4.18;1.80;;;13.90;99.90;;;-144.05;68.42;125687.94;6174998;23;20066;-88
2022/07/05 02:08:29;;;;;;;4.70;2.47;;;13.90;99.90;;;-144.05;68.43;125687.94;6145011;23;20014;-90
2022/07/05 02:10:56;;;;;;;2.63;1.98;;;13.90;99.90;;;-144.05;68.30;125687.94;6131884;23;20006;-88
2022/07/05 02:13:23;;;;;;;6.82;2.30;;;13.90;99.90;;;-144.05;68.41;125687.94;6132768;23;20073;-89
2022/07/05 02:15:49;;;;;;;3.97;2.00;;;14.00;99.90;;;-144.05;68.44;125687.94;6132197;23;20069;-89
2022/07/05 02:18:15;;;;;;;3.85;1.63;;;14.00;99.90;;;-144.05;68.21;125687.94;6131052;23;20010;-90
2022/07/05 02:20:42;;;;;;;2.38;1.98;;;14.00;99.90;;;-144.05;68.35;125687.94;6132377;23;20006;-89
2022/07/05 02:23:09;;;;;;;5.85;1.83;;;13.90;99.90;;;-144.05;68.46;125687.94;6156878;23;20025;-88
2022/07/05 02:25:35;;;;;;;3.92;2.15;;;13.80;99.90;;;-144.05;68.50;125687.94;6132600;23;20013;-88
2022/07/05 02:28:03;;;;;;;4.70;1.65;;;13.80;99.90;;;-144.05;68.47;125687.94;6133757;23;20010;-89
2022/07/05 02:30:29;;;;;;;4.97;2.10;;;13.70;99.90;;;-144.05;68.81;125687.94;6132480;23;20010;-89
2022/07/05 02:32:56;;;;;;;3.50;2.08;;;13.70;99.90;;;-144.05;69.19;125687.94;6133846;23;20064;-87
2022/07/05 02:35:22;;;;;;;4.13;2.22;;;13.60;99.90;;;-144.05;69.29;125687.94;6157964;23;20017;-91
2022/07/05 02:37:48;;;;;;;2.95;2.22;;;13.60;99.90;;;-144.05;69.56;125687.94;6140801;23;20101;-89
2022/07/05 02:40:14;;;;;;;4.40;2.45;;;13.60;99.90;;;-144.05;69.50;125687.94;6148969;23;20046;-88
2022/07/05 02:42:41;;;;;;;3.17;2.50;;;13.60;99.90;;;-144.05;69.56;125687.94;6131329;23;20021;-90
2022/07/05 02:45:08;;;;;;;2.30;1.98;;;13.60;99.90;;;-144.05;69.50;125687.94;6130783;23;20018;-90
2022/07/05 02:47:34;;;;;;;3.45;2.33;;;13.60;99.90;;;-144.05;69.65;125687.94;6130594;23;20044;-89
2022/07/05 02:50:07;;;;;;;8.27;3.25;;;13.60;99.90;;;-144.05;70.10;125687.94;6155968;23;20049;-89
2022/07/05 02:52:34;;;;;;;3.88;2.35;;;13.60;99.90;;;-144.05;70.02;125687.94;6131366;23;20009;-89
2022/07/05 02:55:03;;;;;;;5.03;2.30;;;13.50;99.90;;;-144.05;70.37;125687.94;6132889;23;20436;-89
2022/07/05 02:57:29;;;;;;;4.28;3.28;;;13.50;99.90;;;-144.05;70.45;125687.94;6156241;23;20507;-88
2022/07/05 02:59:57;;;;;;;4.07;2.33;;;13.50;99.90;;;-144.05;70.27;125687.94;6132597;23;20033;-90
2022/07/05 03:02:24;;;;;;;2.65;2.40;;;13.60;99.90;;;-144.05;69.85;125687.94;6132331;23;20094;-89
2022/07/05 03:04:50;;;;;;;3.08;2.25;;;13.50;99.90;;;-144.05;69.85;125687.94;6133012;23;20009;-88
2022/07/05 03:07:16;;;;;;;3.83;2.45;;;13.50;99.90;;;-144.05;70.02;125687.94;6131340;23;20010;-87
2022/07/05 03:09:42;;;;;;;3.13;2.22;;;13.50;99.90;;;-144.05;70.17;125687.94;6157794;23;20006;-88
2022/07/05 03:12:08;;;;;;;3.78;2.67;;;13.60;99.90;;;-144.05;70.15;125687.94;6133402;23;20017;-89
2022/07/05 03:14:34;;;;;;;5.82;2.85;;;13.60;99.90;;;-144.05;69.69;125687.94;6132711;23;20060;-90
2022/07/05 03:17:00;;;;;;;3.20;2.25;;;13.70;99.90;;;-144.05;69.43;125687.94;6133631;23;20436;-90
2022/07/05 03:19:27;;;;;;;5.03;2.58;;;13.80;99.90;;;-144.05;69.09;125687.94;6133905;23;20086;-90
2022/07/05 03:21:53;;;;;;;3.25;2.33;;;13.80;99.90;;;-144.05;68.76;125687.94;6159155;23;20503;-91
2022/07/05 03:24:19;;;;;;;6.00;2.30;;;13.80;99.90;;;-144.05;68.51;125687.94;6135846;23;20009;-90
2022/07/05 03:26:45;;;;;;;3.00;2.28;;;13.80;99.90;;;-144.05;68.64;125687.94;6158681;23;20005;-91
2022/07/05 03:29:12;;;;;;;3.10;2.30;;;13.80;99.90;;;-144.05;68.68;125687.94;6134445;23;20013;-90
2022/07/05 03:31:38;;;;;;;3.45;2.38;;;13.70;99.90;;;-144.05;68.85;125687.94;6140113;23;20065;-87
2022/07/05 03:34:04;;;;;;;2.70;2.03;;;13.70;99.90;;;-144.05;68.89;125687.94;6146801;23;20088;-88
2022/07/05 03:36:30;;;;;;;4.50;2.50;;;13.50;99.90;;;-144.05;69.19;125687.94;6147143;23;20341;-87
2022/07/05 03:38:56;;;;;;;4.55;2.45;;;13.50;99.90;;;-144.05;69.19;125687.94;6146545;23;20069;-89
2022/07/05 03:41:22;;;;;;;2.60;2.40;;;13.50;99.90;;;-144.05;69.41;125687.94;6111864;23;20348;-87
2022/07/05 03:43:51;;;;;;;4.53;2.25;;;13.40;99.90;;;-144.05;69.53;125687.94;6129640;23;20009;-89
2022/07/05 03:46:18;;;;;;;3.15;2.13;;;13.40;99.90;;;-144.05;69.82;125687.94;6155739;23;20042;-86
2022/07/05 03:48:44;;;;;;;6.45;3.10;;;13.40;99.90;;;-144.05;69.98;125687.94;6153026;23;20021;-88
2022/07/05 03:51:10;;;;;;;6.00;2.60;;;13.40;99.90;;;-144.05;70.28;125687.94;6128152;23;20013;-90
2022/07/05 03:53:38;;;;;;;2.72;2.50;;;13.50;99.90;;;-144.05;70.31;125687.94;6127810;23;20024;-88
2022/07/05 03:56:04;;;;;;;4.07;2.33;;;13.60;99.90;;;-144.05;69.92;125687.94;6129786;23;20021;-87
2022/07/05 03:58:32;;;;;;;7.70;2.53;;;13.70;99.90;;;-144.05;69.65;125687.94;6128344;23;20347;-88
2022/07/05 04:00:58;;;;;;;3.67;2.40;;;13.80;99.90;;;-144.05;69.38;125687.94;6152226;23;20396;-90
2022/07/05 04:03:24;;;;;;;4.28;2.33;;;13.90;99.90;;;-144.05;69.19;125687.94;6152221;23;20032;-88
2022/07/05 04:05:50;;;;;;;4.40;2.28;;;13.90;99.90;;;-144.05;69.13;125687.94;6127612;23;20016;-86
2022/07/05 04:08:16;;;;;;;4.65;2.95;;;14.00;99.90;;;-144.05;69.09;125687.94;6130075;23;20314;-86
2022/07/05 04:10:42;;;;;;;3.67;2.33;;;14.00;99.90;;;-144.05;69.06;125687.94;6131435;23;20001;-88
2022/07/05 04:13:07;;;;;;;4.93;2.55;;;14.00;99.90;;;-144.05;69.29;125687.94;6130005;23;20070;-87
2022/07/05 04:15:33;;;;;;;2.47;1.90;;;14.00;99.90;;;-144.05;69.26;125687.94;6130254;23;20060;-85
2022/07/05 04:17:59;;;;;;;3.72;2.08;;;13.90;99.90;;;-144.05;69.43;125687.94;6162001;23;20021;-85
2022/07/05 04:20:26;;;;;;;3.30;2.10;;;14.00;99.90;;;-144.05;69.47;125687.94;6131509;23;20013;-89
2022/07/05 04:22:52;;;;;;;4.63;3.20;;;13.90;99.90;;;-144.05;69.31;125687.94;6130074;23;20010;-88
2022/07/05 04:25:19;;;;;;;5.95;2.50;;;14.00;99.90;;;-144.05;68.93;125687.94;6130305;23;20067;-87
2022/07/05 04:27:49;;;;;;;5.57;3.20;;;14.00;99.90;;;-144.05;68.86;125687.94;6129885;23;20032;-89
2022/07/05 04:30:17;;;;;;;6.18;2.90;;;14.10;99.90;;;-144.05;68.46;125687.94;6130828;23;20009;-88
2022/07/05 04:32:47;;;;;;;5.47;3.00;;;14.10;99.90;;;-144.05;68.35;125687.94;6143314;23;20029;-87
2022/07/05 04:35:14;;;;;;;5.50;2.67;;;14.20;99.90;;;-144.05;67.68;125687.94;6140222;23;20014;-86
2022/07/05 04:37:41;;;;;;;4.88;2.63;;;14.30;99.90;;;-144.05;66.85;125687.94;6130627;23;20010;-90
2022/07/05 04:40:12;;;;;;;6.63;2.72;;;14.50;99.90;;;-144.05;66.30;125687.94;6131128;23;20428;-87
2022/07/05 04:42:38;;;;;;;5.47;2.80;;;14.60;99.90;;;-144.05;65.79;125687.94;6129996;23;20006;-86
2022/07/05 04:45:06;;;;;;;9.20;3.15;;;14.80;99.90;;;-144.05;65.23;125687.94;6154562;23;20006;-87
2022/07/05 04:47:34;;;;;;;6.22;2.45;;;15.00;99.90;;;-144.05;64.90;125687.94;6154529;23;20026;-86
2022/07/05 04:50:25;;;;;;;3.97;2.42;;;15.10;99.90;;;-144.05;64.45;125687.94;6155114;23;20014;-88
2022/07/05 04:52:51;;;;;;;5.30;2.28;;;15.30;99.90;;;-144.05;64.02;125687.94;6130803;23;20010;-87
2022/07/05 04:55:18;;;;;;;2.72;2.30;;;15.40;99.90;;;-144.05;63.48;125687.94;6129382;23;20010;-87
2022/07/05 04:57:44;;;;;;;14.23;5.55;;;15.50;99.90;;;-144.05;63.31;125687.94;6130543;23;20021;-88
2022/07/05 05:00:13;;;;;;;8.52;3.85;;;15.60;99.90;;;-144.05;62.64;125687.94;6131698;23;20006;-88
2022/07/05 05:02:40;;;;;;;6.28;2.33;;;15.70;99.90;;;-144.05;61.40;125687.94;6129495;23;20117;-89
2022/07/05 05:05:07;;;;;;;4.32;2.17;;;15.90;99.90;;;-144.05;60.69;125687.94;6132017;23;20009;-85
2022/07/05 05:07:34;;;;;;;5.00;2.25;;;16.20;99.90;;;-144.05;59.81;125687.94;6131842;23;20433;-88
2022/07/05 05:10:00;;;;;;;6.47;2.38;;;16.50;99.90;;;-144.05;59.05;125687.94;6133269;23;20009;-91
2022/07/05 05:12:26;;;;;;;3.53;2.08;;;16.70;99.90;;;-144.05;58.70;125687.94;6133856;23;20016;-88
2022/07/05 05:14:52;;;;;;;5.03;2.60;;;16.90;99.90;;;-144.05;57.73;125687.94;6132803;23;20010;-88
2022/07/05 05:17:18;;;;;;;5.93;2.92;;;17.00;99.90;;;-144.05;57.76;125687.94;6156625;23;20020;-88
2022/07/05 05:19:44;;;;;;;4.82;2.47;;;17.10;99.90;;;-144.05;56.93;125687.94;6107950;23;20014;-89
2022/07/05 05:22:11;;;;;;;6.10;2.70;;;17.40;99.90;;;-144.05;55.69;125687.94;6108822;23;20029;-88
2022/07/05 05:24:37;;;;;;;4.50;2.45;;;17.50;99.90;;;-144.05;54.21;125687.94;6108429;23;20087;-88
2022/07/05 05:27:25;;;;;;;3.00;1.67;;;17.90;99.90;;;-144.05;53.43;125687.94;6132426;23;20022;-87
2022/07/05 05:30:16;;;;;;;3.22;1.95;;;18.40;99.90;;;-144.05;51.98;125687.94;6111941;23;20017;-89
2022/07/05 05:33:05;;;;;;;4.13;2.10;;;18.70;99.90;;;-144.05;49.09;125687.94;6132975;23;20340;-87
2022/07/05 05:36:29;;;;;;;;;;;;;;;;;;;;;
2022/07/05 05:39:53;;;;;;;3.65;1.95;;;19.40;99.90;;;-144.05;46.74;125687.94;6137654;23;20076;-87
2022/07/05 05:42:46;;;;;;;2.85;2.00;;;19.90;99.90;;;-144.05;45.51;125687.94;6111787;23;20085;-90
2022/07/05 05:45:39;;;;;;;;;;;;;;;;;;;;;
2022/07/05 05:48:20;;;;;;;4.43;2.40;;;20.00;99.90;;;-144.05;46.62;125687.94;6136039;23;20025;-89
2022/07/05 05:50:50;;;;;;;4.53;2.20;;;20.00;99.90;;;-144.05;46.25;125687.94;6145707;23;20036;-88
2022/07/05 05:53:23;;;;;;;4.80;2.10;;;20.00;99.90;;;-144.05;46.00;125687.94;6124690;23;20012;-86
2022/07/05 05:56:31;;;;;;;;;;;;;;;;;;;;;
2022/07/05 05:59:07;;;;;;;4.03;2.30;;;20.40;99.90;;;-144.05;43.63;125687.94;6135365;23;20286;-90
2022/07/05 06:01:43;;;;;;;4.57;1.75;;;20.70;99.90;;;-144.05;43.37;125687.94;6107842;23;20006;-88
2022/07/05 06:04:24;;;;;;;4.50;2.50;;;20.80;99.90;;;-144.05;43.40;125687.94;6108573;23;20009;-88
2022/07/05 06:07:22;;;;;;;7.00;2.45;;;20.90;99.90;;;-144.05;42.91;125687.94;6111535;23;20096;-88
2022/07/05 06:10:07;;;;;;;6.97;2.08;;;21.00;99.90;;;-144.05;42.90;125687.94;6111822;23;20429;-88
2022/07/05 06:12:45;;;;;;;4.60;2.78;;;20.90;99.90;;;-144.05;42.17;125687.94;6112373;23;20010;-87
2022/07/05 06:15:30;;;;;;;7.07;2.35;;;21.20;99.90;;;-144.05;42.12;125687.94;6115531;23;20016;-86
2022/07/05 06:18:39;;;;;;;3.88;2.13;;;21.40;99.90;;;-144.05;41.22;125687.94;6121008;23;20041;-89
2022/07/05 06:21:14;;;;;;;3.67;2.40;;;21.70;99.90;;;-144.05;41.10;125687.94;6160059;23;20010;-89
2022/07/05 06:23:59;;;;;;;4.95;2.05;;;21.70;99.90;;;-144.05;41.00;125687.94;6164111;23;20009;-87
2022/07/05 06:26:38;;;;;;;5.03;2.20;;;22.00;99.90;;;-144.05;39.81;125687.94;6140173;23;20036;-86
2022/07/05 06:29:18;;;;;;;5.28;2.53;;;22.10;99.90;;;-144.05;39.55;125687.94;6146471;23;20002;-89
2022/07/05 06:32:00;;;;;;;8.00;2.42;;;22.10;99.90;;;-144.05;39.18;125687.94;6145872;23;20006;-87
2022/07/05 06:34:27;;;;;;;4.72;1.70;;;22.20;99.90;;;-144.05;39.57;125687.94;6162539;23;20005;-85
2022/07/05 06:36:55;;;;;;;5.68;2.60;;;22.30;99.90;;;-144.05;38.86;125687.94;6133948;23;20010;-87
2022/07/05 06:39:33;;;;;;;4.43;2.08;;;22.40;99.90;;;-144.05;38.17;125687.94;6157412;23;20014;-89
2022/07/05 06:42:09;;;;;;;5.50;2.05;;;22.70;99.90;;;-144.05;37.49;125687.94;6131506;23;20010;-85
2022/07/05 06:44:43;;;;;;;4.80;1.85;;;23.00;99.90;;;-144.05;36.74;125687.94;6130845;23;20016;-87
2022/07/05 06:47:26;;;;;;;3.85;1.88;;;23.20;99.60;;;-144.05;36.85;125687.94;6133152;23;20395;-93
2022/07/05 06:50:06;;;;;;;3.67;1.67;;;23.40;99.20;;;-144.05;36.34;125687.94;6131704;23;20048;-89
2022/07/05 06:56:01;;;;;;;4.70;1.85;;;23.70;96.70;;;-144.05;35.33;125687.94;6139325;23;20021;-86
2022/07/05 06:58:49;;;;;;;2.75;1.40;;;23.90;94.30;;;-144.05;34.75;125687.94;6137195;23;20029;-86
2022/07/05 07:01:34;;;;;;;2.95;1.50;;;24.20;92.00;;;-144.05;33.52;125687.94;6138377;23;20002;-88
2022/07/05 07:04:06;;;;;;;3.70;1.30;;;24.40;88.20;;;-144.05;33.73;125687.94;6141056;23;20017;-89
2022/07/05 07:06:39;;;;;;;2.90;1.30;;;24.20;87.60;;;-144.05;33.79;125687.94;6134056;23;20057;-85
2022/07/05 07:09:53;;;;;;;;;;;;;;;;;;;;;
2022/07/05 07:12:29;;;;;;;3.65;1.40;;;23.60;82.40;;;-144.05;33.58;125687.94;6138755;23;20040;-88
2022/07/05 07:15:04;;;;;;;3.00;1.23;;;23.30;82.70;;;-144.05;33.39;125687.94;6135692;23;20006;-87
2022/07/05 07:17:35;;;;;;;3.03;1.10;;;23.80;82.60;;;-144.05;32.74;125687.94;6136133;23;20014;-87
2022/07/05 07:20:13;;;;;;;3.28;1.02;;;24.20;81.80;;;-144.05;32.60;125687.94;6083436;23;20025;-88
2022/07/05 07:22:45;;;;;;;2.35;0.98;;;24.60;81.20;;;-144.05;32.12;125687.94;6106359;23;20013;-89
2022/07/05 07:25:14;;;;;;;2.92;0.90;;;24.80;77.70;;;-144.05;31.95;125687.94;6081257;23;20007;-88
2022/07/05 07:28:05;;;;;;;2.53;0.90;;;25.30;78.40;;;-144.05;31.33;125687.94;6107334;23;20062;-87
2022/07/05 07:30:38;;;;;;;5.97;1.20;;;25.70;74.50;;;-144.05;31.12;125687.94;6107952;23;20014;-85
2022/07/05 07:33:18;;;;;;;3.97;1.40;;;25.90;73.90;;;-144.05;31.36;125687.94;6110047;23;20250;-88
2022/07/05 07:35:57;;;;;;;3.17;1.42;;;25.90;72.60;;;-144.05;30.75;125687.94;6085110;23;20006;-87
2022/07/05 07:38:33;;;;;;;2.28;1.38;;;25.80;71.20;;;-144.05;31.63;125687.94;6111265;23;20094;-87
2022/07/05 07:41:02;;;;;;;1.45;0.98;;;26.00;73.80;;;-144.05;31.84;125687.94;6110882;23;20003;-88
2022/07/05 07:43:39;;;;;;;3.17;0.90;;;25.90;74.20;;;-144.05;31.67;125687.94;6089002;23;20034;-87
2022/07/05 07:46:31;;;;;;;2.55;1.02;;;26.10;72.90;;;-144.05;30.80;125687.94;6113523;23;20006;-88
2022/07/05 07:49:08;;;;;;;5.28;1.00;;;26.10;71.20;;;-144.05;30.11;125687.94;6083879;23;20025;-87
2022/07/05 07:51:41;;;;;;;1.73;1.00;;;26.30;67.20;;;-144.05;29.90;125687.94;6088719;23;20025;-85
2022/07/05 07:54:33;;;;;;;1.55;0.80;;;26.00;66.70;;;-144.05;31.18;125687.94;6111202;23;20010;-88
2022/07/05 07:57:10;;;;;;;2.00;1.00;;;25.50;68.30;;;-144.05;32.33;125687.94;6111026;23;20037;-85
2022/07/05 07:59:48;;;;;;;4.10;1.25;;;24.90;71.40;;;-144.05;32.17;125687.94;6085768;23;20071;-88
2022/07/05 08:02:22;;;;;;;5.18;1.35;;;24.70;70.30;;;-144.05;31.74;125687.94;6110140;23;20021;-86
2022/07/05 08:05:09;;;;;;;3.28;1.17;;;24.80;70.30;;;-144.05;30.94;125687.94;6087134;23;20496;-87
2022/07/05 08:07:51;;;;;;;2.95;1.30;;;25.30;70.00;;;-144.05;31.17;125687.94;6111114;23;20322;-88
2022/07/05 08:10:46;;;;;;;3.10;0.90;;;25.40;68.60;;;-144.05;31.67;125687.94;6087101;23;20025;-88
2022/07/05 08:13:42;;;;;;;5.43;1.38;;;26.00;72.50;;;-144.05;30.25;125687.94;6107954;23;20010;-86
2022/07/05 08:16:43;;;;;;;2.78;1.40;;;26.50;68.70;;;-144.05;30.35;125687.94;6099306;23;20024;-86
2022/07/05 08:21:53;;;;;;;1.90;1.00;;;25.40;68.10;;;-144.05;32.19;125687.94;6143333;23;20009;-86
2022/07/05 08:24:19;;;;;;;3.20;1.08;;;24.80;70.40;;;-144.05;32.27;125687.94;6144189;23;20345;-88
2022/07/05 08:26:45;;;;;;;3.50;1.20;;;25.20;71.30;;;-144.05;31.31;125687.94;6132602;23;20009;-88
2022/07/05 08:29:13;;;;;;;4.28;1.13;;;25.80;69.10;;;-144.05;31.06;125687.94;6133899;23;20014;-86
2022/07/05 08:31:50;;;;;;;2.85;1.08;;;25.80;68.20;;;-144.05;31.40;125687.94;6133583;23;20017;-87
2022/07/05 08:34:18;;;;;;;2.90;1.17;;;25.40;68.10;;;-144.05;31.82;125687.94;6134216;23;20009;-86
2022/07/05 08:36:45;;;;;;;6.20;1.20;;;25.00;68.50;;;-144.05;31.83;125687.94;6140330;23;20628;-88
2022/07/05 08:39:11;;;;;;;3.08;1.40;;;24.70;68.90;;;-144.05;32.43;125687.94;6137753;23;20013;-87
2022/07/05 08:41:41;;;;;;;1.45;1.02;;;24.30;69.00;;;-144.05;33.04;125687.94;6134652;23;20014;-89
2022/07/05 08:44:10;;;;;;;2.00;0.73;;;24.00;71.50;;;-144.05;33.16;125687.94;6160142;23;20005;-88
2022/07/05 08:46:40;;;;;;;3.42;1.30;;;23.90;72.20;;;-144.05;33.67;125687.94;6160818;23;20010;-87
2022/07/05 08:49:07;;;;;;;3.03;1.20;;;23.80;73.50;;;-144.05;32.65;125687.94;6134091;23;20097;-84
2022/07/05 08:51:39;;;;;;;3.40;1.20;;;24.00;71.50;;;-144.05;31.87;125687.94;6136750;23;20025;-86
2022/07/05 08:54:11;;;;;;;2.25;1.00;;;24.60;70.00;;;-144.05;31.15;125687.94;6136430;23;20063;-87
2022/07/05 08:56:43;;;;;;;1.88;1.17;;;25.50;68.70;;;-144.05;30.50;125687.94;6138296;23;20089;-85
2022/07/05 08:59:09;;;;;;;2.33;1.10;;;25.60;66.30;;;-144.05;30.61;125687.94;6135869;23;20336;-87
2022/07/05 09:01:39;;;;;;;3.30;1.35;;;25.60;67.40;;;-144.05;31.27;125687.94;6159948;23;20460;-86
2022/07/05 09:04:09;;;;;;;2.22;1.20;;;25.30;66.90;;;-144.05;31.10;125687.94;6134235;23;20070;-88
2022/07/05 09:06:40;;;;;;;4.60;1.35;;;25.10;67.60;;;-144.05;30.67;125687.94;6160495;23;20005;-84
2022/07/05 09:09:08;;;;;;;3.13;1.17;;;25.80;66.60;;;-144.05;30.40;125687.94;6163796;23;20066;-87
2022/07/05 09:11:41;;;;;;;4.82;1.38;;;25.80;66.20;;;-144.05;31.53;125687.94;6138681;23;20020;-86
2022/07/05 09:14:27;;;;;;;4.72;1.52;;;24.90;66.60;;;-144.05;32.88;125687.94;6158816;23;20360;-88
2022/07/05 09:16:53;;;;;;;2.85;1.27;;;24.40;69.90;;;-144.05;33.51;125687.94;6131962;23;20017;-86
2022/07/05 09:19:19;;;;;;;2.65;1.25;;;24.00;71.70;;;-144.05;33.43;125687.94;6133319;23;20014;-87
2022/07/05 09:21:45;;;;;;;3.55;1.10;;;24.10;72.50;;;-144.05;33.11;125687.94;6155895;23;20006;-87
2022/07/05 09:24:13;;;;;;;2.35;0.80;;;24.60;72.70;;;-144.05;32.35;125687.94;6134792;23;20026;-86
2022/07/05 09:26:52;;;;;;;3.67;1.13;;;25.30;71.70;;;-144.05;30.85;125687.94;6109706;23;20006;-87
2022/07/05 09:29:20;;;;;;;2.03;1.23;;;26.00;68.00;;;-144.05;30.14;125687.94;6132653;23;20348;-87
2022/07/05 09:31:49;;;;;;;2.50;1.27;;;26.30;65.80;;;-144.05;29.98;125687.94;6134350;23;20010;-88
2022/07/05 09:34:20;;;;;;;1.92;1.23;;;26.00;63.90;;;-144.05;30.80;125687.94;6131154;23;20104;-86
2022/07/05 09:36:54;;;;;;;4.20;1.60;;;25.70;65.90;;;-144.05;31.18;125687.94;6135074;23;20058;-91
2022/07/05 09:39:39;;;;;;;2.95;1.38;;;25.30;65.30;;;-144.05;31.67;125687.94;6133481;23;20010;-88
2022/07/05 09:42:24;;;;;;;2.78;1.13;;;24.90;66.50;;;-144.05;31.98;125687.94;6134683;23;20006;-87
2022/07/05 09:44:56;;;;;;;4.20;1.25;;;24.40;67.20;;;-144.05;32.61;125687.94;6133566;23;20006;-87
2022/07/05 09:47:32;;;;;;;1.58;1.10;;;24.00;68.90;;;-144.05;33.33;125687.94;6126112;23;20014;-87
2022/07/05 09:50:07;;;;;;;6.45;1.50;;;23.80;70.70;;;-144.05;33.01;125687.94;6128241;23;20090;-85
2022/07/05 09:52:42;;;;;;;2.33;1.08;;;23.40;70.10;;;-144.05;33.07;125687.94;6152564;23;20010;-85
2022/07/05 09:55:19;;;;;;;;;;;23.80;72.10;;;-144.05;32.57;125687.94;6154398;23;20081;-88
2022/07/05 09:57:54;;;;;;;5.78;1.10;;;24.30;70.00;;;-144.05;32.17;125687.94;6129128;23;20374;-84
2022/07/05 10:00:23;;;;;;;4.10;1.35;;;24.30;69.20;;;-144.05;31.98;125687.94;6130926;23;20006;-88
2022/07/05 10:03:00;;;;;;;3.72;1.25;;;24.50;70.00;;;-144.05;31.20;125687.94;6153761;23;20042;-86
2022/07/05 10:05:32;;;;;;;3.65;1.10;;;25.20;66.80;;;-144.05;31.01;125687.94;6153920;23;20010;-87
2022/07/05 10:08:02;;;;;;;2.42;1.30;;;26.10;69.00;;;-144.05;29.39;125687.94;6154170;23;20013;-83
2022/07/05 10:10:33;;;;;;;3.28;1.27;;;27.30;64.90;;;-144.05;27.81;125687.94;6161889;23;20480;-87
2022/07/05 10:13:04;;;;;;;1.88;0.98;;;27.90;59.10;;;-144.05;27.23;125687.94;6129031;23;20040;-88
2022/07/05 10:15:36;;;;;;;4.22;1.50;;;27.90;57.10;;;-144.05;28.28;125687.94;6153735;23;20073;-86
2022/07/05 10:18:16;;;;;;;2.22;1.20;;;26.80;58.00;;;-144.05;30.20;125687.94;6128103;23;20043;-85
2022/07/05 10:20:45;;;;;;;3.50;1.58;;;25.70;61.60;;;-144.05;31.37;125687.94;6153153;23;20444;-87
2022/07/05 10:23:18;;;;;;;2.45;1.30;;;25.00;63.80;;;-144.05;31.51;125687.94;6153675;23;20026;-88
2022/07/05 10:25:49;;;;;;;2.65;1.27;;;24.80;65.40;;;-144.05;31.32;125687.94;6130563;23;20010;-85
2022/07/05 10:28:21;;;;;;;3.67;1.75;;;24.40;64.20;;;-144.05;31.83;125687.94;6154314;23;20080;-88
2022/07/05 10:30:51;;;;;;;2.75;1.35;;;24.00;65.70;;;-144.05;32.22;125687.94;6154660;23;20061;-86
2022/07/05 10:33:26;;;;;;;3.45;1.00;;;23.60;65.80;;;-144.05;31.88;125687.94;6130097;23;20025;-88